Terminal Aerodrome Forecast
Issued by NWS

Home | Current Version | Previous Version | Text Only | Print | Product List | Glossary On
Versions: 1 2 3 4 5 6 7 8 9 10 11 12 13 14 15 16 17 18 19 20 21
000
FTAK31 PAJN 220500
TAFAYA
TAF
PAYA 220522Z 2206/2306 VRB04KT P6SM FEW090
     FM221200 08008KT P6SM VCSH SCT100
     FM222100 11008KT P6SM -SHRA BKN050
      AMD LTD TO CLD VIS AND WIND 2206/2210=

USA.gov is the U.S. government's official web portal to all federal, state and local government web resources and services.